Time;durP1;ratioP1;P1;durP2;ratioP2;P2;SDS_P1;SDS_P2;PMS_P1;PMS_P2;Temp;Humidity;BMP_temperature;BMP_pressure;BME280_temperature;BME280_humidity;BME280_pressure;Samples;Min_cycle;Max_cycle;Signal;HPM_P1;HPM_P2
2022/01/02 00:01:03;;;;;;;7.35;2.63;;;11.60;99.90;;;;;;4231894;28;20083;-87
2022/01/02 00:03:06;;;;;;;4.75;2.33;;;11.60;99.90;;;;;;4249339;28;20116;-87
2022/01/02 00:05:12;;;;;;;7.15;2.70;;;11.50;99.90;;;;;;4229537;28;20090;-87
2022/01/02 00:07:16;;;;;;;7.75;2.47;;;11.60;99.90;;;;;;4229245;28;20050;-87
2022/01/02 00:09:32;;;;;;;6.40;2.70;;;11.60;99.90;;;;;;4228715;28;20047;-87
2022/01/02 00:11:34;;;;;;;5.80;2.47;;;11.50;99.90;;;;;;4247548;28;20093;-87
2022/01/02 00:13:41;;;;;;;7.25;2.67;;;11.60;99.90;;;;;;4247163;27;20043;-87
2022/01/02 00:15:42;;;;;;;6.15;2.47;;;11.60;99.90;;;;;;4247320;28;20062;-87
2022/01/02 00:17:43;;;;;;;8.63;2.33;;;11.60;99.90;;;;;;4212506;28;20048;-87
2022/01/02 00:19:52;;;;;;;4.75;2.17;;;11.60;99.90;;;;;;4212154;28;20218;-87
2022/01/02 00:21:55;;;;;;;11.32;2.60;;;11.60;99.90;;;;;;4247273;28;20066;-87
2022/01/02 00:24:01;;;;;;;5.13;2.35;;;11.80;99.90;;;;;;4237131;28;20094;-87
2022/01/02 00:26:05;;;;;;;12.77;4.55;;;11.70;99.90;;;;;;4244405;28;20050;-87
2022/01/02 00:28:07;;;;;;;7.80;3.20;;;11.80;99.90;;;;;;4267422;27;20410;-87
2022/01/02 00:30:08;;;;;;;6.90;2.58;;;11.70;99.90;;;;;;4248866;27;20430;-87
2022/01/02 00:32:10;;;;;;;5.70;2.58;;;11.70;99.90;;;;;;4249030;27;20507;-87
2022/01/02 00:34:11;;;;;;;9.57;3.30;;;11.70;99.90;;;;;;4249539;27;20054;-87
2022/01/02 00:36:12;;;;;;;10.73;3.35;;;11.70;99.90;;;;;;4249207;27;20415;-86
2022/01/02 00:38:21;;;;;;;7.15;2.25;;;11.70;99.90;;;;;;4268258;27;20081;-86
2022/01/02 00:40:23;;;;;;;9.02;2.88;;;11.80;99.90;;;;;;4252456;27;20055;-87
2022/01/02 00:42:31;;;;;;;6.05;3.10;;;11.70;99.90;;;;;;4248977;27;20051;-87
2022/01/02 00:44:50;;;;;;;6.47;2.60;;;11.90;99.90;;;;;;4263970;27;20035;-87
2022/01/02 00:47:16;;;;;;;6.75;2.75;;;11.70;99.90;;;;;;4249902;27;20391;-87
2022/01/02 00:49:24;;;;;;;6.30;2.65;;;11.70;99.90;;;;;;4231681;28;20101;-87
2022/01/02 00:51:49;;;;;;;12.55;3.22;;;11.70;99.90;;;;;;4231656;28;20075;-86
2022/01/02 00:53:54;;;;;;;6.10;2.53;;;11.90;99.90;;;;;;4249194;27;20091;-87
2022/01/02 00:55:59;;;;;;;6.15;3.35;;;11.70;99.90;;;;;;4231330;28;20039;-86
2022/01/02 00:58:03;;;;;;;10.18;2.80;;;11.70;99.90;;;;;;4249918;27;20047;-87
2022/01/02 01:00:15;;;;;;;6.53;2.67;;;11.60;99.90;;;;;;4231955;28;20506;-86
2022/01/02 01:02:24;;;;;;;10.20;2.85;;;11.70;99.90;;;;;;4253848;27;20038;-87
2022/01/02 01:04:28;;;;;;;6.28;2.53;;;11.70;99.90;;;;;;4250375;27;20039;-87
2022/01/02 01:06:33;;;;;;;10.77;2.85;;;11.70;99.90;;;;;;4232115;28;20056;-87
2022/01/02 01:08:35;;;;;;;12.27;4.28;;;11.70;99.90;;;;;;4231538;28;20110;-87
2022/01/02 01:10:40;;;;;;;8.85;2.78;;;11.70;99.90;;;;;;4231557;28;20398;-87
2022/01/02 01:12:41;;;;;;;11.18;3.13;;;11.70;99.90;;;;;;4234733;27;20141;-87
2022/01/02 01:14:42;;;;;;;8.13;3.22;;;11.70;99.90;;;;;;4250059;27;20035;-87
2022/01/02 01:16:44;;;;;;;4.75;2.60;;;11.70;99.90;;;;;;4231941;28;20073;-87
2022/01/02 01:18:45;;;;;;;9.13;2.78;;;11.70;99.90;;;;;;4215334;28;20059;-87
2022/01/02 01:20:50;;;;;;;9.70;3.30;;;11.70;99.90;;;;;;4249566;27;20098;-87
2022/01/02 01:22:51;;;;;;;9.73;3.35;;;11.70;99.90;;;;;;4265331;27;20043;-87
2022/01/02 01:24:52;;;;;;;7.32;2.60;;;11.70;99.90;;;;;;4244105;27;20036;-87
2022/01/02 01:26:56;;;;;;;11.48;3.38;;;11.70;99.90;;;;;;4215009;28;20044;-87
2022/01/02 01:28:57;;;;;;;5.95;3.10;;;11.70;99.90;;;;;;4249806;27;20078;-87
2022/01/02 01:30:57;;;;;;;11.05;2.72;;;11.70;99.90;;;;;;4231744;28;20096;-87
2022/01/02 01:32:58;;;;;;;9.05;2.80;;;11.50;99.90;;;;;;4231920;28;20107;-87
2022/01/02 01:34:59;;;;;;;10.98;3.25;;;11.60;99.90;;;;;;4250027;27;20563;-87
2022/01/02 01:37:00;;;;;;;6.60;2.92;;;11.60;99.90;;;;;;4249773;27;20050;-87
2022/01/02 01:39:02;;;;;;;7.13;2.80;;;11.60;99.90;;;;;;4249415;27;20043;-87
2022/01/02 01:41:17;;;;;;;8.13;2.72;;;11.60;99.90;;;;;;4250473;27;20055;-87
2022/01/02 01:43:18;;;;;;;9.02;3.45;;;11.60;99.90;;;;;;4249546;27;20039;-87
2022/01/02 01:47:20;;;;;;;11.13;4.00;;;11.60;99.90;;;;;;4231657;28;20071;-86
2022/01/02 01:49:27;;;;;;;8.10;3.00;;;11.60;99.90;;;;;;4231331;28;20404;-87
2022/01/02 01:51:27;;;;;;;8.73;2.85;;;11.50;99.90;;;;;;4249791;27;20047;-87
2022/01/02 01:53:28;;;;;;;9.50;3.08;;;11.50;99.90;;;;;;4231691;28;20052;-87
2022/01/02 01:55:30;;;;;;;12.32;3.17;;;11.50;99.90;;;;;;4231365;28;20047;-87
2022/01/02 01:57:31;;;;;;;9.77;4.18;;;11.70;99.90;;;;;;4231594;28;20054;-85
2022/01/02 01:59:32;;;;;;;9.77;3.53;;;11.50;99.90;;;;;;4241601;28;20057;-85
2022/01/02 02:01:34;;;;;;;10.27;4.35;;;11.50;99.90;;;;;;4258941;27;20510;-86
2022/01/02 02:03:34;;;;;;;7.35;2.92;;;11.50;99.90;;;;;;4259317;27;20054;-87
2022/01/02 02:05:35;;;;;;;9.45;3.45;;;11.50;99.90;;;;;;4241773;28;20103;-86
2022/01/02 02:07:43;;;;;;;10.73;3.40;;;11.50;99.90;;;;;;4253028;27;20110;-85
2022/01/02 02:11:59;;;;;;;7.38;3.30;;;11.50;99.90;;;;;;4249685;27;20047;-87
2022/01/02 02:14:01;;;;;;;6.88;3.50;;;11.50;99.90;;;;;;4247918;27;20039;-87
2022/01/02 02:16:02;;;;;;;9.70;3.95;;;11.50;99.90;;;;;;4248971;27;20052;-88
2022/01/02 02:18:04;;;;;;;13.30;3.58;;;11.50;99.90;;;;;;4249962;27;20035;-87
2022/01/02 02:20:18;;;;;;;11.68;3.88;;;11.40;99.90;;;;;;4230681;28;20055;-87
2022/01/02 02:22:19;;;;;;;10.43;3.38;;;11.40;99.90;;;;;;4231010;28;20047;-87
2022/01/02 02:24:19;;;;;;;7.90;3.47;;;11.40;99.90;;;;;;4231159;28;20126;-87
2022/01/02 02:26:20;;;;;;;10.48;3.92;;;11.40;99.90;;;;;;4230848;28;20090;-88
2022/01/02 02:28:26;;;;;;;9.02;3.63;;;11.40;99.90;;;;;;4230650;28;20040;-87
2022/01/02 02:30:29;;;;;;;6.35;3.30;;;11.90;99.90;;;;;;4248466;27;20487;-87
2022/01/02 02:32:30;;;;;;;13.70;3.63;;;11.30;99.90;;;;;;4249174;27;20452;-87
2022/01/02 02:34:31;;;;;;;8.57;3.70;;;11.30;99.90;;;;;;4230922;28;20079;-87
2022/01/02 02:36:32;;;;;;;6.60;3.38;;;11.60;99.90;;;;;;4230614;28;20056;-87
2022/01/02 02:38:33;;;;;;;9.52;3.65;;;11.40;99.90;;;;;;4213495;28;20520;-87
2022/01/02 02:40:34;;;;;;;10.52;3.97;;;11.40;99.90;;;;;;4230197;28;20125;-87
2022/01/02 02:42:59;;;;;;;10.73;3.47;;;11.30;99.90;;;;;;4230501;28;20051;-87
2022/01/02 02:49:51;;;;;;;;;;;11.30;99.90;;;;;;4230528;28;20055;-87
2022/01/02 02:52:00;;;;;;;11.60;3.97;;;11.30;99.90;;;;;;4222624;28;20411;-87
2022/01/02 02:54:01;;;;;;;8.82;3.67;;;11.40;99.90;;;;;;4246882;27;20413;-87
2022/01/02 02:56:14;;;;;;;7.63;3.92;;;11.20;99.90;;;;;;4225347;28;20036;-87
2022/01/02 03:00:34;;;;;;;10.95;3.90;;;11.20;99.90;;;;;;4247887;27;20075;-87
2022/01/02 03:02:35;;;;;;;14.02;4.70;;;11.20;99.90;;;;;;4230237;28;20052;-87
2022/01/02 03:04:35;;;;;;;9.02;4.60;;;11.10;99.90;;;;;;4247584;27;20038;-87
2022/01/02 03:06:37;;;;;;;9.48;3.85;;;11.20;99.90;;;;;;4247803;27;20039;-87
2022/01/02 03:08:40;;;;;;;7.60;3.92;;;11.10;99.90;;;;;;4229755;28;20624;-87
2022/01/02 03:10:40;;;;;;;13.20;4.07;;;11.10;99.90;;;;;;4230104;28;20162;-87
2022/01/02 03:12:41;;;;;;;9.80;4.00;;;11.10;99.90;;;;;;4232473;27;20055;-87
2022/01/02 03:14:42;;;;;;;11.02;4.53;;;11.10;99.90;;;;;;4246272;27;20051;-87
2022/01/02 03:16:44;;;;;;;11.80;4.03;;;11.00;99.90;;;;;;4264981;27;20038;-87
2022/01/02 03:18:45;;;;;;;11.30;3.70;;;11.10;99.90;;;;;;4243047;27;20134;-87
2022/01/02 03:20:45;;;;;;;15.43;4.30;;;11.10;99.90;;;;;;4248302;27;20559;-87
2022/01/02 03:22:46;;;;;;;11.27;4.55;;;11.10;99.90;;;;;;4247791;27;20048;-87
2022/01/02 03:24:49;;;;;;;7.80;3.65;;;11.00;99.90;;;;;;4247515;27;20042;-87
2022/01/02 03:26:50;;;;;;;11.90;4.78;;;11.10;99.90;;;;;;4229725;28;20130;-88
2022/01/02 03:28:51;;;;;;;10.52;3.67;;;11.00;99.90;;;;;;4247732;27;20038;-87
2022/01/02 03:30:51;;;;;;;11.52;3.95;;;11.00;99.90;;;;;;4247243;27;20039;-87
2022/01/02 03:32:52;;;;;;;10.30;4.15;;;11.10;99.90;;;;;;4247522;27;20569;-87
2022/01/02 03:34:53;;;;;;;12.18;4.35;;;11.00;99.90;;;;;;4212847;28;20048;-87
2022/01/02 03:36:54;;;;;;;9.52;3.90;;;11.10;99.90;;;;;;4234119;27;20052;-87
2022/01/02 03:38:54;;;;;;;8.82;4.43;;;11.10;99.90;;;;;;4246144;27;20043;-87
2022/01/02 03:40:55;;;;;;;12.25;4.20;;;11.00;99.90;;;;;;4246055;27;20062;-87
2022/01/02 03:42:57;;;;;;;12.18;4.40;;;11.00;99.90;;;;;;4259956;27;20047;-86
2022/01/02 03:44:58;;;;;;;14.43;4.32;;;11.00;99.90;;;;;;4230542;28;20039;-87
2022/01/02 03:46:59;;;;;;;9.02;4.60;;;11.10;99.90;;;;;;4248021;27;20091;-87
2022/01/02 03:49:00;;;;;;;9.23;4.78;;;11.00;99.90;;;;;;4247558;27;20031;-87
2022/01/02 03:51:00;;;;;;;12.27;4.50;;;11.00;99.90;;;;;;4212665;28;20566;-87
2022/01/02 03:53:01;;;;;;;10.27;4.95;;;11.10;99.90;;;;;;4247480;28;20043;-87
2022/01/02 03:55:03;;;;;;;14.95;4.78;;;11.00;99.90;;;;;;4212135;28;20484;-87
2022/01/02 03:57:04;;;;;;;14.18;4.72;;;11.00;99.90;;;;;;4225547;28;20048;-87
2022/01/02 03:59:05;;;;;;;11.18;4.30;;;11.00;99.90;;;;;;4229421;28;20557;-87
2022/01/02 04:01:07;;;;;;;16.85;4.90;;;11.00;99.90;;;;;;4255788;27;20038;-88
2022/01/02 04:03:08;;;;;;;11.38;4.72;;;11.10;99.90;;;;;;4268556;27;20144;-87
2022/01/02 04:05:12;;;;;;;14.05;5.55;;;11.00;99.90;;;;;;4249880;27;20051;-86
2022/01/02 04:07:12;;;;;;;10.57;4.43;;;11.00;99.90;;;;;;4242843;27;20130;-87
2022/01/02 04:09:13;;;;;;;13.75;4.45;;;11.10;99.90;;;;;;4251428;27;20039;-87
2022/01/02 04:11:14;;;;;;;10.82;5.00;;;11.00;99.90;;;;;;4251093;27;20035;-86
2022/01/02 04:13:14;;;;;;;12.43;4.88;;;11.00;99.90;;;;;;4215986;28;20044;-87
2022/01/02 04:15:16;;;;;;;9.10;4.35;;;11.10;99.90;;;;;;4251320;27;20514;-87
2022/01/02 04:17:18;;;;;;;13.57;4.93;;;11.10;99.90;;;;;;4233038;28;20127;-87
2022/01/02 04:19:19;;;;;;;16.95;4.95;;;11.00;99.90;;;;;;4232790;28;20057;-87
2022/01/02 04:21:19;;;;;;;16.38;4.50;;;11.10;99.90;;;;;;4232917;28;20075;-87
2022/01/02 04:23:20;;;;;;;16.60;5.13;;;11.80;99.90;;;;;;4232355;28;20124;-87
2022/01/02 04:25:21;;;;;;;13.35;4.80;;;11.10;99.90;;;;;;4260088;27;20535;-87
2022/01/02 04:27:23;;;;;;;20.35;5.28;;;11.70;99.90;;;;;;4232685;28;20043;-87
2022/01/02 04:29:24;;;;;;;13.20;4.40;;;11.30;99.90;;;;;;4249642;27;20081;-87
2022/01/02 04:31:25;;;;;;;17.63;4.90;;;11.10;99.90;;;;;;4240159;27;20480;-87
2022/01/02 04:33:25;;;;;;;9.13;4.47;;;11.10;99.90;;;;;;4250452;27;20031;-87
2022/01/02 04:35:26;;;;;;;17.85;4.72;;;10.10;99.90;;;;;;4232536;28;20047;-87
2022/01/02 04:37:28;;;;;;;11.40;4.57;;;11.20;99.90;;;;;;4232459;28;20482;-87
2022/01/02 04:39:29;;;;;;;12.00;4.45;;;11.60;99.90;;;;;;4250669;27;20408;-87
2022/01/02 04:41:29;;;;;;;16.48;4.72;;;11.10;99.90;;;;;;4250677;27;20085;-87
2022/01/02 04:43:30;;;;;;;10.45;3.92;;;11.10;99.90;;;;;;4250161;27;20495;-87
2022/01/02 04:45:31;;;;;;;22.48;4.47;;;11.10;99.90;;;;;;4250488;27;20031;-87
2022/01/02 04:47:32;;;;;;;11.15;4.22;;;11.10;99.90;;;;;;4250119;27;20054;-87
2022/01/02 04:49:33;;;;;;;14.60;4.07;;;11.10;99.90;;;;;;4250845;27;20092;-87
2022/01/02 04:51:33;;;;;;;12.45;4.47;;;12.00;99.90;;;;;;4250827;27;20126;-87
2022/01/02 04:53:37;;;;;;;7.38;3.80;;;11.20;99.90;;;;;;4215368;28;20508;-87
2022/01/02 04:55:37;;;;;;;12.77;3.78;;;11.20;99.90;;;;;;4250062;27;20636;-87
2022/01/02 04:57:39;;;;;;;15.27;4.03;;;11.50;99.90;;;;;;4249472;27;20043;-87
2022/01/02 04:59:40;;;;;;;14.40;4.85;;;11.60;99.90;;;;;;4230129;28;20130;-87
2022/01/02 05:01:40;;;;;;;8.73;3.95;;;11.20;99.90;;;;;;4250381;27;20047;-87
2022/01/02 05:03:42;;;;;;;13.45;4.03;;;11.20;99.90;;;;;;4258575;27;20414;-87
2022/01/02 05:05:43;;;;;;;15.52;4.28;;;11.20;99.90;;;;;;4267297;27;20186;-87
2022/01/02 05:07:44;;;;;;;12.20;4.30;;;11.20;99.90;;;;;;4267111;27;20106;-87
2022/01/02 05:09:45;;;;;;;9.90;3.72;;;11.20;99.90;;;;;;4231240;28;20051;-87
2022/01/02 05:11:46;;;;;;;10.65;4.15;;;11.20;99.90;;;;;;4231966;28;20047;-87
2022/01/02 05:13:46;;;;;;;8.50;4.25;;;11.20;99.90;;;;;;4266162;27;20059;-87
2022/01/02 05:15:47;;;;;;;12.00;4.70;;;11.20;99.90;;;;;;4232039;28;20059;-87
2022/01/02 05:17:48;;;;;;;11.05;4.05;;;11.20;99.90;;;;;;4232014;28;20051;-87
2022/01/02 05:19:49;;;;;;;13.85;4.18;;;11.60;99.90;;;;;;4231693;28;20044;-87
2022/01/02 05:21:50;;;;;;;13.73;4.88;;;11.30;99.90;;;;;;4248355;27;20117;-87
2022/01/02 05:23:50;;;;;;;13.27;4.47;;;11.30;99.90;;;;;;4266271;27;20043;-87
2022/01/02 05:25:51;;;;;;;11.93;3.92;;;11.30;99.90;;;;;;4266335;27;20069;-87
2022/01/02 05:27:52;;;;;;;16.55;4.00;;;11.30;99.90;;;;;;4248073;27;20403;-87
2022/01/02 05:29:53;;;;;;;11.02;3.90;;;11.30;99.90;;;;;;4266315;27;20074;-87
2022/01/02 05:31:54;;;;;;;8.73;3.30;;;11.40;99.90;;;;;;4266428;27;20468;-87
2022/01/02 05:33:54;;;;;;;15.70;4.88;;;11.30;99.90;;;;;;4230516;28;20491;-87
2022/01/02 05:35:55;;;;;;;10.27;4.20;;;11.30;99.90;;;;;;4230746;28;20178;-87
2022/01/02 05:37:56;;;;;;;19.55;5.13;;;11.70;99.90;;;;;;4257973;27;20039;-87
2022/01/02 05:39:56;;;;;;;11.05;3.88;;;11.70;99.90;;;;;;4249643;27;20520;-87
2022/01/02 05:41:57;;;;;;;12.38;3.72;;;10.40;99.90;;;;;;4231544;28;20130;-87
2022/01/02 05:43:58;;;;;;;16.17;4.05;;;11.30;99.90;;;;;;4231277;28;20066;-87
2022/01/02 05:46:03;;;;;;;15.82;4.40;;;11.40;99.90;;;;;;4249919;27;20062;-87
2022/01/02 05:48:05;;;;;;;12.30;3.55;;;11.30;99.90;;;;;;4231314;28;20514;-87
2022/01/02 05:50:08;;;;;;;13.55;3.60;;;11.30;99.90;;;;;;4249770;27;20054;-87
2022/01/02 05:52:09;;;;;;;8.95;3.92;;;10.70;99.90;;;;;;4249623;27;20049;-87
2022/01/02 05:54:10;;;;;;;12.75;3.33;;;11.40;99.90;;;;;;4231346;28;20232;-87
2022/01/02 05:56:11;;;;;;;8.68;3.55;;;11.40;99.90;;;;;;4248879;27;20043;-87
2022/01/02 05:58:12;;;;;;;12.05;3.30;;;11.30;99.90;;;;;;4235324;27;20423;-87
2022/01/02 06:00:13;;;;;;;8.40;3.85;;;11.40;99.90;;;;;;4233027;27;20142;-87
2022/01/02 06:02:14;;;;;;;10.43;3.50;;;10.50;99.90;;;;;;4215644;28;20040;-87
2022/01/02 06:04:14;;;;;;;12.63;3.63;;;11.80;99.90;;;;;;4231063;27;20051;-86
2022/01/02 06:06:15;;;;;;;6.78;2.70;;;11.40;99.90;;;;;;4234816;27;20552;-87
2022/01/02 06:08:16;;;;;;;12.65;3.30;;;11.40;99.90;;;;;;4244186;27;20109;-87
2022/01/02 06:10:17;;;;;;;13.07;3.45;;;11.50;99.90;;;;;;4232593;28;20138;-86
2022/01/02 06:12:17;;;;;;;6.25;2.70;;;11.50;99.90;;;;;;4235025;27;20056;-87
2022/01/02 06:14:18;;;;;;;12.43;3.40;;;10.60;99.90;;;;;;4233084;28;20051;-86
2022/01/02 06:16:19;;;;;;;8.00;2.83;;;11.40;99.90;;;;;;4251422;27;20051;-87
2022/01/02 06:18:20;;;;;;;7.57;2.50;;;11.60;99.90;;;;;;4265574;27;20027;-87
2022/01/02 06:20:21;;;;;;;12.10;3.47;;;11.40;99.90;;;;;;4250416;28;20089;-86
2022/01/02 06:22:22;;;;;;;9.18;2.90;;;11.40;99.90;;;;;;4251118;28;20048;-86
2022/01/02 06:24:22;;;;;;;14.48;2.90;;;11.90;99.90;;;;;;4267485;27;20023;-87
2022/01/02 06:26:23;;;;;;;11.55;3.60;;;11.50;99.90;;;;;;4249702;28;20042;-86
2022/01/02 06:28:24;;;;;;;9.43;2.58;;;11.50;99.90;;;;;;4217681;28;20093;-87
2022/01/02 06:30:24;;;;;;;9.05;2.80;;;11.50;99.90;;;;;;4251988;27;20031;-86
2022/01/02 06:32:25;;;;;;;9.85;2.40;;;11.50;99.90;;;;;;4226639;28;20148;-87
2022/01/02 06:34:26;;;;;;;12.82;3.05;;;10.80;99.90;;;;;;4251698;27;20040;-87
2022/01/02 06:36:27;;;;;;;8.38;2.88;;;11.50;99.90;;;;;;4251778;27;20051;-87
2022/01/02 06:38:28;;;;;;;8.15;2.92;;;11.50;99.90;;;;;;4233085;28;20055;-87
2022/01/02 06:40:29;;;;;;;9.20;3.40;;;11.50;99.90;;;;;;4231409;28;20693;-87
2022/01/02 06:42:29;;;;;;;3.85;2.28;;;11.60;99.90;;;;;;4230568;28;20283;-87
2022/01/02 06:44:30;;;;;;;9.32;3.00;;;11.60;99.90;;;;;;4214235;28;20070;-86
2022/01/02 06:46:31;;;;;;;14.75;2.63;;;11.60;99.90;;;;;;4214016;28;20268;-87
2022/01/02 06:48:31;;;;;;;9.25;3.00;;;10.50;99.90;;;;;;4248775;27;20053;-86
2022/01/02 06:50:33;;;;;;;7.10;2.28;;;11.70;99.90;;;;;;4230508;28;20046;-86
2022/01/02 06:52:33;;;;;;;9.80;2.42;;;11.60;99.90;;;;;;4230783;28;20047;-86
2022/01/02 06:54:37;;;;;;;6.82;2.35;;;11.60;99.90;;;;;;4213331;28;20083;-86
2022/01/02 06:56:37;;;;;;;10.07;2.83;;;11.60;99.90;;;;;;4248638;27;20058;-86
2022/01/02 06:58:40;;;;;;;7.28;2.10;;;11.60;99.90;;;;;;4248656;27;20539;-86
2022/01/02 07:00:41;;;;;;;8.77;2.50;;;11.60;99.90;;;;;;4248502;27;20047;-87
2022/01/02 07:02:42;;;;;;;8.02;3.10;;;11.60;99.90;;;;;;4230691;28;20522;-87
2022/01/02 07:04:43;;;;;;;9.90;2.65;;;11.60;99.90;;;;;;4230117;28;20044;-87
2022/01/02 07:06:44;;;;;;;17.42;2.40;;;11.60;99.90;;;;;;4213688;28;20126;-86
2022/01/02 07:08:45;;;;;;;7.55;2.50;;;11.60;99.90;;;;;;4248761;27;20114;-86
2022/01/02 07:10:45;;;;;;;7.07;2.75;;;11.70;99.90;;;;;;4248258;27;20043;-87
2022/01/02 07:12:46;;;;;;;8.38;2.50;;;11.70;99.90;;;;;;4213730;28;20469;-87
2022/01/02 07:14:47;;;;;;;9.20;2.33;;;11.70;99.90;;;;;;4247872;27;20046;-87
2022/01/02 07:16:48;;;;;;;3.92;1.65;;;11.70;99.90;;;;;;4230082;28;20051;-86
2022/01/02 07:18:48;;;;;;;9.57;1.85;;;11.70;99.90;;;;;;4248159;27;20079;-87
2022/01/02 07:20:49;;;;;;;6.57;2.03;;;11.80;99.90;;;;;;4229990;28;20534;-87
2022/01/02 07:22:50;;;;;;;6.22;2.53;;;11.80;99.90;;;;;;4212985;28;20052;-87
2022/01/02 07:24:51;;;;;;;4.93;1.90;;;11.80;99.90;;;;;;4247870;27;20143;-86
2022/01/02 07:26:53;;;;;;;4.75;1.73;;;11.80;99.90;;;;;;4230005;28;20155;-86
2022/01/02 07:28:53;;;;;;;7.32;1.75;;;11.10;99.90;;;;;;4212520;28;20052;-87
2022/01/02 07:30:55;;;;;;;6.30;2.25;;;11.90;99.90;;;;;;4229900;28;20114;-87
2022/01/02 07:33:01;;;;;;;12.07;2.17;;;11.90;99.90;;;;;;4248757;27;20035;-85
2022/01/02 07:35:06;;;;;;;6.30;1.55;;;11.90;99.90;;;;;;4250972;27;20458;-86
2022/01/02 07:37:06;;;;;;;7.38;2.22;;;11.90;99.90;;;;;;4229836;28;20126;-85
2022/01/02 07:39:07;;;;;;;6.93;1.42;;;11.90;99.90;;;;;;4248505;27;20073;-85
2022/01/02 07:41:08;;;;;;;8.18;1.88;;;12.00;99.90;;;;;;4253708;27;20042;-85
2022/01/02 07:43:09;;;;;;;6.57;1.77;;;12.00;99.90;;;;;;4246575;27;20047;-85
2022/01/02 07:45:09;;;;;;;7.05;2.05;;;12.00;99.90;;;;;;4266041;27;20903;-85
2022/01/02 07:47:10;;;;;;;2.97;1.55;;;11.90;99.90;;;;;;4243038;27;20050;-85
2022/01/02 07:49:12;;;;;;;3.88;2.20;;;11.90;99.90;;;;;;4235937;28;20040;-85
2022/01/02 07:51:13;;;;;;;4.72;2.13;;;11.90;99.90;;;;;;4230241;28;20509;-85
2022/01/02 07:53:13;;;;;;;4.93;1.70;;;11.90;99.90;;;;;;4241032;28;20055;-85
2022/01/02 07:55:18;;;;;;;7.32;1.92;;;11.90;99.90;;;;;;4256813;27;20043;-84
2022/01/02 07:57:19;;;;;;;5.30;1.60;;;11.90;99.90;;;;;;4235447;28;20047;-85
2022/01/02 07:59:21;;;;;;;5.03;1.40;;;11.90;99.90;;;;;;4231352;28;20133;-85
2022/01/02 08:01:22;;;;;;;5.85;1.58;;;11.90;99.90;;;;;;4230277;28;20094;-85
2022/01/02 08:03:24;;;;;;;9.68;2.10;;;11.90;99.90;;;;;;4229276;28;20039;-85
2022/01/02 08:05:24;;;;;;;9.55;1.92;;;12.00;99.90;;;;;;4252339;27;20063;-85
2022/01/02 08:07:25;;;;;;;10.63;1.77;;;11.90;99.90;;;;;;4254742;27;20039;-85
2022/01/02 08:09:26;;;;;;;3.67;1.55;;;11.90;99.90;;;;;;4248041;28;20321;-85
2022/01/02 08:11:30;;;;;;;7.38;2.03;;;11.90;99.90;;;;;;4212924;28;20048;-85
2022/01/02 08:13:30;;;;;;;8.80;2.38;;;11.80;99.90;;;;;;4247340;27;20045;-85
2022/01/02 08:15:32;;;;;;;6.25;1.98;;;11.80;99.90;;;;;;4213081;28;20062;-85
2022/01/02 08:17:33;;;;;;;5.53;1.98;;;11.80;99.90;;;;;;4252174;27;20055;-84
2022/01/02 08:19:33;;;;;;;3.55;2.20;;;12.20;99.90;;;;;;4256815;27;20415;-83
2022/01/02 08:21:34;;;;;;;12.25;2.03;;;11.80;99.90;;;;;;4246725;28;20047;-83
2022/01/02 08:23:35;;;;;;;5.05;2.15;;;11.80;99.90;;;;;;4246191;28;20053;-83
2022/01/02 08:25:36;;;;;;;4.20;1.42;;;11.70;99.90;;;;;;4246934;27;20049;-85
2022/01/02 08:27:37;;;;;;;6.35;1.92;;;11.70;99.90;;;;;;4228018;28;20154;-85
2022/01/02 08:29:38;;;;;;;7.53;2.17;;;11.60;99.90;;;;;;4245656;27;20082;-85
2022/01/02 08:31:40;;;;;;;5.60;2.00;;;11.70;99.90;;;;;;4246923;27;20511;-86
2022/01/02 08:33:41;;;;;;;6.88;1.77;;;11.60;99.90;;;;;;4246263;28;20122;-86
2022/01/02 08:35:43;;;;;;;4.95;1.98;;;11.70;99.90;;;;;;4246993;27;20035;-86
2022/01/02 08:37:43;;;;;;;13.02;2.22;;;11.60;99.90;;;;;;4231611;28;20124;-86
2022/01/02 08:39:45;;;;;;;10.32;1.80;;;11.90;99.90;;;;;;4228818;28;20051;-86
2022/01/02 08:41:46;;;;;;;9.65;2.97;;;11.60;99.90;;;;;;4247165;27;20051;-86
2022/01/02 08:43:47;;;;;;;7.80;2.45;;;11.60;99.90;;;;;;4240946;28;20108;-85
2022/01/02 08:45:48;;;;;;;6.80;1.90;;;11.60;99.90;;;;;;4245449;28;20076;-86
2022/01/02 08:47:50;;;;;;;7.90;2.60;;;11.60;99.90;;;;;;4264919;27;20070;-86
2022/01/02 08:49:51;;;;;;;7.05;1.92;;;11.60;99.90;;;;;;4235828;27;20039;-86
2022/01/02 08:51:55;;;;;;;6.78;1.75;;;11.60;99.90;;;;;;4215068;28;20048;-85
2022/01/02 08:53:56;;;;;;;5.57;2.05;;;11.50;99.90;;;;;;4255234;27;20053;-85
2022/01/02 08:55:57;;;;;;;5.85;2.03;;;10.80;99.90;;;;;;4238669;28;20492;-85
2022/01/02 08:57:58;;;;;;;6.00;2.50;;;11.60;99.90;;;;;;4255406;27;20054;-85
2022/01/02 08:59:58;;;;;;;4.15;2.10;;;11.50;99.90;;;;;;4249332;27;20051;-85
2022/01/02 09:01:59;;;;;;;3.17;1.83;;;11.50;99.90;;;;;;4262725;27;20038;-85
2022/01/02 09:04:01;;;;;;;6.45;2.50;;;11.50;99.90;;;;;;4248375;27;20759;-86
2022/01/02 09:06:02;;;;;;;5.15;2.00;;;11.50;99.90;;;;;;4268487;27;20046;-85
2022/01/02 09:08:03;;;;;;;4.78;1.77;;;11.50;99.90;;;;;;4249386;27;20111;-86
2022/01/02 09:10:11;;;;;;;4.88;1.88;;;11.50;99.90;;;;;;4268129;27;20051;-86
2022/01/02 09:12:14;;;;;;;5.15;1.77;;;11.50;99.90;;;;;;4268561;27;20510;-86
2022/01/02 09:14:15;;;;;;;4.78;1.80;;;11.50;99.90;;;;;;4215963;28;20522;-86
2022/01/02 09:16:16;;;;;;;4.70;2.25;;;11.50;99.90;;;;;;4216725;28;20067;-86
2022/01/02 09:18:17;;;;;;;7.18;1.63;;;11.50;99.90;;;;;;4214956;28;20476;-86
2022/01/02 09:20:18;;;;;;;5.15;1.80;;;11.20;99.90;;;;;;4231413;28;20492;-86
2022/01/02 09:22:19;;;;;;;4.63;1.70;;;11.70;99.90;;;;;;4231734;28;20515;-86
2022/01/02 09:24:21;;;;;;;6.07;2.10;;;11.40;99.90;;;;;;4249854;27;20329;-87
2022/01/02 09:26:22;;;;;;;5.05;1.67;;;11.70;99.90;;;;;;4267297;27;20132;-87
2022/01/02 09:28:23;;;;;;;5.75;2.25;;;11.20;99.90;;;;;;4267390;27;20050;-87
2022/01/02 09:30:23;;;;;;;6.13;2.13;;;11.40;99.90;;;;;;4264818;27;20038;-86
2022/01/02 09:32:25;;;;;;;7.20;2.33;;;11.40;99.90;;;;;;4250471;27;20050;-86
2022/01/02 09:34:27;;;;;;;6.88;1.88;;;11.40;99.90;;;;;;4232140;28;20391;-86
2022/01/02 09:36:28;;;;;;;5.13;2.30;;;11.40;99.90;;;;;;4236788;27;20406;-86
2022/01/02 09:38:29;;;;;;;5.30;2.60;;;11.30;99.90;;;;;;4249264;27;20051;-86
2022/01/02 09:40:31;;;;;;;8.20;2.50;;;11.30;99.90;;;;;;4267614;27;20051;-86
2022/01/02 09:42:33;;;;;;;6.03;2.78;;;11.30;99.90;;;;;;4267329;27;20159;-86
2022/01/02 09:44:34;;;;;;;6.13;2.63;;;11.30;99.90;;;;;;4267263;27;20424;-86
2022/01/02 09:46:37;;;;;;;4.57;2.30;;;11.30;99.90;;;;;;4267640;27;20042;-86
2022/01/02 09:48:39;;;;;;;5.45;2.20;;;11.70;99.90;;;;;;4248590;27;20108;-86
2022/01/02 09:50:40;;;;;;;4.05;2.13;;;11.30;99.90;;;;;;4248881;27;20046;-86
2022/01/02 09:52:41;;;;;;;4.53;2.30;;;11.30;99.90;;;;;;4272130;27;20043;-86
2022/01/02 09:54:43;;;;;;;5.30;2.35;;;11.30;99.90;;;;;;4259516;27;20100;-86
2022/01/02 09:56:44;;;;;;;5.90;2.38;;;11.20;99.90;;;;;;4271227;27;20043;-87
2022/01/02 09:58:45;;;;;;;5.72;2.75;;;11.40;99.90;;;;;;4249044;27;20058;-86
2022/01/02 10:00:48;;;;;;;4.55;2.60;;;11.30;99.90;;;;;;4267725;27;20050;-86
2022/01/02 10:02:56;;;;;;;4.50;2.70;;;11.30;99.90;;;;;;4252572;27;20126;-86
2022/01/02 10:05:02;;;;;;;9.25;3.03;;;11.30;99.90;;;;;;4234837;28;20122;-85
2022/01/02 10:07:25;;;;;;;6.03;3.10;;;11.60;99.90;;;;;;4232337;28;20036;-86
2022/01/02 10:09:36;;;;;;;11.38;2.97;;;11.30;99.90;;;;;;4253173;27;20051;-86
2022/01/02 10:11:40;;;;;;;9.60;3.33;;;11.90;99.90;;;;;;4235604;28;20138;-86
2022/01/02 10:13:53;;;;;;;8.13;2.90;;;11.20;99.90;;;;;;4263749;27;20497;-86
2022/01/02 10:15:54;;;;;;;7.13;3.15;;;11.20;99.90;;;;;;4247206;27;20077;-86
2022/01/02 10:18:16;;;;;;;10.95;2.95;;;11.20;99.90;;;;;;4250182;27;20046;-86
2022/01/02 10:20:16;;;;;;;6.65;3.28;;;11.20;99.90;;;;;;4231746;27;20051;-86
2022/01/02 10:22:17;;;;;;;13.32;3.92;;;11.20;99.90;;;;;;4230790;28;20079;-86
2022/01/02 10:24:24;;;;;;;11.23;3.40;;;11.20;99.90;;;;;;4229678;28;20474;-86
2022/01/02 10:26:25;;;;;;;9.82;3.00;;;11.20;99.90;;;;;;4249286;27;20513;-87
2022/01/02 10:28:38;;;;;;;12.20;3.30;;;11.20;99.90;;;;;;4233383;28;20052;-86
2022/01/02 10:30:45;;;;;;;7.35;2.88;;;11.20;99.90;;;;;;4234033;28;20054;-86
2022/01/02 10:32:47;;;;;;;11.52;3.63;;;11.20;99.90;;;;;;4233666;28;20049;-86
2022/01/02 10:34:48;;;;;;;15.80;3.65;;;11.20;99.90;;;;;;4230710;28;20088;-87
2022/01/02 10:36:49;;;;;;;5.88;3.22;;;11.20;99.90;;;;;;4237438;27;20047;-86
2022/01/02 10:39:03;;;;;;;9.50;3.25;;;11.20;99.90;;;;;;4230234;28;20043;-86
2022/01/02 10:41:04;;;;;;;7.57;3.55;;;11.30;99.90;;;;;;4230378;28;20040;-86
2022/01/02 10:43:27;;;;;;;11.13;3.08;;;11.30;99.90;;;;;;4230056;28;20046;-86
2022/01/02 10:45:36;;;;;;;9.23;3.55;;;11.30;99.90;;;;;;4231278;28;20047;-86